Main page
METAR-TAF:

METAR-TAF

Airports :

Cambridge Airport

Cambridge, England

latitude: 52-12N, longitude: 000-11E, elevation: 15 m

Current weather observation

The report was made 10 hours and 48 minutes ago, at 16:50 UTC
Wind 5 kt from the South/Southeast
Temperature 11°C
Humidity 82%
Pressure 1016 hPa
Visibility 10 km or more
Few clouds at a height of 1100 ft

METAR: EGSC 221650Z 16005KT 9999 FEW011 11/08 Q1016

Time: 04:38 (03:38 UTC)

Forecast

The report was made 13 hours and 35 minutes ago, at 14:03 UTC
Forecast valid from 22 at 15 UTC to 22 at 19 UTC
Wind 10 kt from the Southwest
Visibility 10 km or more
Scattered clouds at a height of 3000 ft
Becoming
from 22 at 15 UTC to 22 at 18 UTC
Wind 4 kt from the South
Temporary
from 22 at 15 UTC to 22 at 19 UTC
Visibility: 9000 m
Broken clouds at a height of 1400 ft
rain

TAF: EGSC 221403Z 2215/2219 23010KT 9999 SCT030 BECMG 2215/2218 17004KT TEMPO 2215/2219 9000 RA BKN014

Weather observations and forecasts of more than 4000 airports (METAR and TAF reports).

The available stations are represented by yellow and red dots on the map.

Hover mouse over dot to see the name of the station.

Then click to see weather observations and forecasts.

To change the map : click on the green buttons with a black cross to zoom in, on the green button with a dash to zoom out, or on the green arrows for adjacent maps.


METAR-TAF: